sensor_id;sensor_type;location;lat;lon;timestamp;pressure;altitude;pressure_sealevel;temperature;humidity
13476;BME280;6810;63.824;20.288;2024-02-04T03:03:41;96937.19;;;2.76;69.32
13476;BME280;6810;63.824;20.288;2024-02-04T03:06:08;96935.53;;;2.75;69.87
13476;BME280;6810;63.824;20.288;2024-02-04T03:08:35;96925.00;;;2.66;69.88
13476;BME280;6810;63.824;20.288;2024-02-04T03:11:02;96957.94;;;2.70;70.19
13476;BME280;6810;63.824;20.288;2024-02-04T03:13:29;96964.28;;;2.67;69.69
13476;BME280;6810;63.824;20.288;2024-02-04T03:15:57;96988.06;;;2.66;70.07
13476;BME280;6810;63.824;20.288;2024-02-04T03:18:24;96982.25;;;2.62;69.60
13476;BME280;6810;63.824;20.288;2024-02-04T03:21:16;96983.47;;;2.58;70.39
13476;BME280;6810;63.824;20.288;2024-02-04T03:24:04;96976.81;;;2.54;70.88
13476;BME280;6810;63.824;20.288;2024-02-04T03:26:51;96992.13;;;2.49;70.36
13476;BME280;6810;63.824;20.288;2024-02-04T03:29:38;97016.16;;;2.45;70.87
13476;BME280;6810;63.824;20.288;2024-02-04T03:32:25;97013.94;;;2.40;69.61
13476;BME280;6810;63.824;20.288;2024-02-04T03:35:12;97022.19;;;2.36;70.07
13476;BME280;6810;63.824;20.288;2024-02-04T03:37:59;97047.06;;;2.32;70.24
13476;BME280;6810;63.824;20.288;2024-02-04T03:40:47;97042.22;;;2.27;70.60
13476;BME280;6810;63.824;20.288;2024-02-04T03:43:36;97042.59;;;2.23;70.15
13476;BME280;6810;63.824;20.288;2024-02-04T03:46:23;97076.16;;;2.19;70.10
13476;BME280;6810;63.824;20.288;2024-02-04T03:49:10;97077.50;;;2.14;70.23
13476;BME280;6810;63.824;20.288;2024-02-04T03:51:57;97099.69;;;2.10;69.96
13476;BME280;6810;63.824;20.288;2024-02-04T03:54:43;97086.81;;;2.07;69.50
13476;BME280;6810;63.824;20.288;2024-02-04T03:57:32;97110.84;;;2.02;69.43
13476;BME280;6810;63.824;20.288;2024-02-04T04:00:19;97111.09;;;1.99;69.42
13476;BME280;6810;63.824;20.288;2024-02-04T04:03:06;97142.03;;;1.96;68.98
13476;BME280;6810;63.824;20.288;2024-02-04T04:05:53;97127.84;;;1.87;69.01
13476;BME280;6810;63.824;20.288;2024-02-04T04:08:40;97133.94;;;1.88;70.07
13476;BME280;6810;63.824;20.288;2024-02-04T04:11:27;97160.44;;;1.85;69.10
13476;BME280;6810;63.824;20.288;2024-02-04T04:14:14;97158.88;;;1.82;69.42
13476;BME280;6810;63.824;20.288;2024-02-04T04:17:01;97172.59;;;1.74;69.35
13476;BME280;6810;63.824;20.288;2024-02-04T04:19:48;97172.16;;;1.69;69.34
13476;BME280;6810;63.824;20.288;2024-02-04T04:22:35;97168.56;;;1.70;69.18
13476;BME280;6810;63.824;20.288;2024-02-04T04:25:25;97188.97;;;1.67;69.19
13476;BME280;6810;63.824;20.288;2024-02-04T04:28:11;97191.00;;;1.63;68.63
13476;BME280;6810;63.824;20.288;2024-02-04T04:30:58;97216.41;;;1.63;69.16
13476;BME280;6810;63.824;20.288;2024-02-04T04:33:45;97214.97;;;1.59;68.77
13476;BME280;6810;63.824;20.288;2024-02-04T04:36:32;97219.50;;;1.57;69.14
13476;BME280;6810;63.824;20.288;2024-02-04T04:39:19;97238.25;;;1.52;68.55
13476;BME280;6810;63.824;20.288;2024-02-04T04:42:06;97256.00;;;1.49;69.23
13476;BME280;6810;63.824;20.288;2024-02-04T04:44:53;97257.88;;;1.47;68.89
13476;BME280;6810;63.824;20.288;2024-02-04T04:47:40;97266.00;;;1.44;68.96
13476;BME280;6810;63.824;20.288;2024-02-04T04:50:27;97270.66;;;1.40;68.65
13476;BME280;6810;63.824;20.288;2024-02-04T04:53:14;97284.94;;;1.36;68.52
13476;BME280;6810;63.824;20.288;2024-02-04T04:56:00;97291.28;;;1.34;69.15
13476;BME280;6810;63.824;20.288;2024-02-04T04:58:47;97294.97;;;1.31;68.98
13476;BME280;6810;63.824;20.288;2024-02-04T05:01:34;97314.50;;;1.27;68.65
13476;BME280;6810;63.824;20.288;2024-02-04T05:04:21;97309.47;;;1.24;68.26
13476;BME280;6810;63.824;20.288;2024-02-04T05:07:08;97318.16;;;1.14;68.93
13476;BME280;6810;63.824;20.288;2024-02-04T05:09:55;97342.38;;;1.17;68.87
13476;BME280;6810;63.824;20.288;2024-02-04T05:12:42;97348.78;;;1.13;68.14
13476;BME280;6810;63.824;20.288;2024-02-04T05:15:29;97363.81;;;1.11;68.06
13476;BME280;6810;63.824;20.288;2024-02-04T05:18:16;97357.94;;;1.08;67.98
13476;BME280;6810;63.824;20.288;2024-02-04T05:21:04;97376.53;;;1.05;68.79
13476;BME280;6810;63.824;20.288;2024-02-04T05:23:51;97363.75;;;1.00;67.88
13476;BME280;6810;63.824;20.288;2024-02-04T05:26:38;97381.50;;;0.97;68.13
13476;BME280;6810;63.824;20.288;2024-02-04T05:29:25;97379.09;;;0.94;68.13
13476;BME280;6810;63.824;20.288;2024-02-04T05:32:11;97388.03;;;0.91;68.29
13476;BME280;6810;63.824;20.288;2024-02-04T05:34:58;97402.16;;;0.89;67.91
13476;BME280;6810;63.824;20.288;2024-02-04T05:37:45;97403.34;;;0.85;68.21
13476;BME280;6810;63.824;20.288;2024-02-04T05:40:32;97412.63;;;0.78;67.67
13476;BME280;6810;63.824;20.288;2024-02-04T05:43:19;97412.50;;;0.79;68.02
13476;BME280;6810;63.824;20.288;2024-02-04T05:46:06;97427.59;;;0.76;67.92
13476;BME280;6810;63.824;20.288;2024-02-04T05:48:53;97437.34;;;0.74;68.02
13476;BME280;6810;63.824;20.288;2024-02-04T05:51:41;97427.09;;;0.71;68.15
13476;BME280;6810;63.824;20.288;2024-02-04T05:54:28;97441.25;;;0.68;68.05
13476;BME280;6810;63.824;20.288;2024-02-04T05:57:15;97446.81;;;0.64;67.97
13476;BME280;6810;63.824;20.288;2024-02-04T06:00:02;97447.16;;;0.59;67.65
13476;BME280;6810;63.824;20.288;2024-02-04T06:02:49;97459.50;;;0.57;67.60
13476;BME280;6810;63.824;20.288;2024-02-04T06:05:36;97466.53;;;0.57;67.61
13476;BME280;6810;63.824;20.288;2024-02-04T06:08:23;97460.25;;;0.47;67.79
13476;BME280;6810;63.824;20.288;2024-02-04T06:11:11;97460.78;;;0.52;67.76
13476;BME280;6810;63.824;20.288;2024-02-04T06:13:58;97473.16;;;0.50;67.76
13476;BME280;6810;63.824;20.288;2024-02-04T06:16:45;97480.38;;;0.46;67.52
13476;BME280;6810;63.824;20.288;2024-02-04T06:19:32;97490.94;;;0.45;67.38
13476;BME280;6810;63.824;20.288;2024-02-04T06:22:19;97491.06;;;0.43;67.50
13476;BME280;6810;63.824;20.288;2024-02-04T06:25:06;97496.50;;;0.40;67.29
13476;BME280;6810;63.824;20.288;2024-02-04T06:27:53;97490.66;;;0.37;67.03
13476;BME280;6810;63.824;20.288;2024-02-04T06:30:40;97505.53;;;0.36;67.46
13476;BME280;6810;63.824;20.288;2024-02-04T06:33:27;97507.50;;;0.33;67.39
13476;BME280;6810;63.824;20.288;2024-02-04T06:36:14;97509.41;;;0.31;67.14
13476;BME280;6810;63.824;20.288;2024-02-04T06:39:02;97512.13;;;0.29;67.03
13476;BME280;6810;63.824;20.288;2024-02-04T06:41:48;97507.94;;;0.27;66.96
13476;BME280;6810;63.824;20.288;2024-02-04T06:44:35;97519.47;;;0.24;66.39
13476;BME280;6810;63.824;20.288;2024-02-04T06:47:22;97519.56;;;0.23;67.00
13476;BME280;6810;63.824;20.288;2024-02-04T06:50:09;97512.75;;;0.20;66.93
13476;BME280;6810;63.824;20.288;2024-02-04T06:52:56;97511.94;;;0.20;67.35
13476;BME280;6810;63.824;20.288;2024-02-04T06:55:43;97504.19;;;0.18;66.70
13476;BME280;6810;63.824;20.288;2024-02-04T06:58:30;97504.28;;;0.17;66.71
13476;BME280;6810;63.824;20.288;2024-02-04T07:01:17;97498.31;;;0.15;66.72
13476;BME280;6810;63.824;20.288;2024-02-04T07:04:04;97506.16;;;0.15;67.01
13476;BME280;6810;63.824;20.288;2024-02-04T07:06:51;97506.28;;;0.13;66.90
13476;BME280;6810;63.824;20.288;2024-02-04T07:09:38;97509.00;;;0.12;66.59
13476;BME280;6810;63.824;20.288;2024-02-04T07:12:25;97513.38;;;0.11;67.08
13476;BME280;6810;63.824;20.288;2024-02-04T07:15:12;97503.84;;;0.10;66.86
13476;BME280;6810;63.824;20.288;2024-02-04T07:17:59;97513.47;;;0.10;66.88
13476;BME280;6810;63.824;20.288;2024-02-04T07:20:46;97516.19;;;0.08;66.73
13476;BME280;6810;63.824;20.288;2024-02-04T07:23:32;97523.25;;;0.08;66.89
13476;BME280;6810;63.824;20.288;2024-02-04T07:26:19;97519.78;;;0.07;67.10
13476;BME280;6810;63.824;20.288;2024-02-04T07:29:06;97527.72;;;0.06;66.94
13476;BME280;6810;63.824;20.288;2024-02-04T07:31:53;97539.75;;;0.08;67.11
13476;BME280;6810;63.824;20.288;2024-02-04T07:34:40;97538.09;;;0.07;67.11
13476;BME280;6810;63.824;20.288;2024-02-04T07:37:27;97546.78;;;0.08;67.16
13476;BME280;6810;63.824;20.288;2024-02-04T07:40:14;97551.94;;;0.09;66.86
13476;BME280;6810;63.824;20.288;2024-02-04T07:43:01;97551.94;;;0.09;67.10
13476;BME280;6810;63.824;20.288;2024-02-04T07:45:48;97551.19;;;0.07;66.84
13476;BME280;6810;63.824;20.288;2024-02-04T07:48:35;97563.22;;;0.10;66.88
13476;BME280;6810;63.824;20.288;2024-02-04T07:51:22;97571.91;;;0.10;66.93
13476;BME280;6810;63.824;20.288;2024-02-04T07:54:08;97571.91;;;0.10;66.83
13476;BME280;6810;63.824;20.288;2024-02-04T07:56:56;97543.50;;;-0.09;66.88
13476;BME280;6810;63.824;20.288;2024-02-04T07:59:42;97576.31;;;0.10;67.00
13476;BME280;6810;63.824;20.288;2024-02-04T08:02:39;97577.16;;;0.10;66.93
13476;BME280;6810;63.824;20.288;2024-02-04T08:05:26;97586.78;;;0.10;66.94
13476;BME280;6810;63.824;20.288;2024-02-04T08:08:13;97601.56;;;0.11;67.06
13476;BME280;6810;63.824;20.288;2024-02-04T08:11:00;97601.56;;;0.11;67.70
13476;BME280;6810;63.824;20.288;2024-02-04T08:13:47;97596.31;;;0.11;67.12
13476;BME280;6810;63.824;20.288;2024-02-04T08:16:34;97598.94;;;0.11;67.01
13476;BME280;6810;63.824;20.288;2024-02-04T08:19:21;97598.09;;;0.10;67.07
13476;BME280;6810;63.824;20.288;2024-02-04T08:22:08;97580.59;;;-0.02;66.88
13476;BME280;6810;63.824;20.288;2024-02-04T08:24:55;97604.88;;;0.13;66.95
13476;BME280;6810;63.824;20.288;2024-02-04T08:27:41;97600.72;;;0.10;67.19
13476;BME280;6810;63.824;20.288;2024-02-04T08:30:28;97595.38;;;0.12;66.99
13476;BME280;6810;63.824;20.288;2024-02-04T08:33:16;97604.88;;;0.13;67.16
13476;BME280;6810;63.824;20.288;2024-02-04T08:36:03;97603.97;;;0.14;67.07
13476;BME280;6810;63.824;20.288;2024-02-04T08:38:50;97598.94;;;0.11;67.45
13476;BME280;6810;63.824;20.288;2024-02-04T08:41:36;97607.41;;;0.14;67.08
13476;BME280;6810;63.824;20.288;2024-02-04T08:44:23;97610.88;;;0.15;67.25
13476;BME280;6810;63.824;20.288;2024-02-04T08:47:10;97612.53;;;0.16;67.23
13476;BME280;6810;63.824;20.288;2024-02-04T08:49:57;97612.53;;;0.16;67.25
13476;BME280;6810;63.824;20.288;2024-02-04T08:52:44;97617.56;;;0.19;67.21
13476;BME280;6810;63.824;20.288;2024-02-04T08:55:31;97618.53;;;0.18;67.10
13476;BME280;6810;63.824;20.288;2024-02-04T08:58:19;97621.78;;;0.21;67.06
13476;BME280;6810;63.824;20.288;2024-02-04T09:01:09;97618.22;;;0.22;67.49
13476;BME280;6810;63.824;20.288;2024-02-04T09:03:55;97610.25;;;0.24;67.28
13476;BME280;6810;63.824;20.288;2024-02-04T09:06:43;97614.22;;;0.29;66.91
13476;BME280;6810;63.824;20.288;2024-02-04T09:09:30;97616.47;;;0.35;67.37
13476;BME280;6810;63.824;20.288;2024-02-04T09:12:17;97622.31;;;0.39;67.34
13476;BME280;6810;63.824;20.288;2024-02-04T09:15:04;97613.34;;;0.43;67.31
13476;BME280;6810;63.824;20.288;2024-02-04T09:17:51;97621.78;;;0.46;67.49
13476;BME280;6810;63.824;20.288;2024-02-04T09:20:39;97627.56;;;0.51;67.73
13476;BME280;6810;63.824;20.288;2024-02-04T09:23:26;97625.59;;;0.55;67.41
13476;BME280;6810;63.824;20.288;2024-02-04T09:26:13;97631.56;;;0.57;67.30
13476;BME280;6810;63.824;20.288;2024-02-04T09:28:59;97629.47;;;0.62;67.35
13476;BME280;6810;63.824;20.288;2024-02-04T09:31:46;97644.97;;;0.65;67.26
13476;BME280;6810;63.824;20.288;2024-02-04T09:34:33;97637.00;;;0.66;67.01
13476;BME280;6810;63.824;20.288;2024-02-04T09:37:21;97628.34;;;0.66;67.50
13476;BME280;6810;63.824;20.288;2024-02-04T09:40:08;97623.69;;;0.69;67.58
13476;BME280;6810;63.824;20.288;2024-02-04T09:42:57;97621.94;;;0.70;67.60
13476;BME280;6810;63.824;20.288;2024-02-04T09:45:44;97626.22;;;0.71;67.34
13476;BME280;6810;63.824;20.288;2024-02-04T09:48:33;97614.69;;;0.61;66.97
13476;BME280;6810;63.824;20.288;2024-02-04T09:51:20;97641.72;;;0.74;67.16
13476;BME280;6810;63.824;20.288;2024-02-04T09:54:10;97648.66;;;0.75;67.45
13476;BME280;6810;63.824;20.288;2024-02-04T09:56:57;97646.03;;;0.75;67.54
13476;BME280;6810;63.824;20.288;2024-02-04T09:59:45;97651.19;;;0.76;67.63
13476;BME280;6810;63.824;20.288;2024-02-04T10:02:37;97632.72;;;0.65;68.01
13476;BME280;6810;63.824;20.288;2024-02-04T10:05:24;97654.50;;;0.78;67.33
13476;BME280;6810;63.824;20.288;2024-02-04T10:08:11;97663.97;;;0.81;68.00
13476;BME280;6810;63.824;20.288;2024-02-04T10:10:58;97670.78;;;0.83;67.16
13476;BME280;6810;63.824;20.288;2024-02-04T10:13:47;97645.41;;;0.71;67.34
13476;BME280;6810;63.824;20.288;2024-02-04T10:16:37;97662.69;;;0.86;67.38
13476;BME280;6810;63.824;20.288;2024-02-04T10:19:24;97670.34;;;0.89;67.40
13476;BME280;6810;63.824;20.288;2024-02-04T10:22:12;97667.63;;;0.91;67.55
13476;BME280;6810;63.824;20.288;2024-02-04T10:25:08;97646.75;;;0.77;68.06
13476;BME280;6810;63.824;20.288;2024-02-04T10:27:56;97678.53;;;0.97;67.80
13476;BME280;6810;63.824;20.288;2024-02-04T10:30:43;97677.47;;;1.00;67.68
13476;BME280;6810;63.824;20.288;2024-02-04T10:33:31;97682.50;;;1.03;67.59
13476;BME280;6810;63.824;20.288;2024-02-04T10:36:20;97676.22;;;1.05;67.53
13476;BME280;6810;63.824;20.288;2024-02-04T10:39:07;97678.66;;;1.08;67.92
13476;BME280;6810;63.824;20.288;2024-02-04T10:41:56;97681.88;;;1.12;67.85
13476;BME280;6810;63.824;20.288;2024-02-04T10:44:49;97665.63;;;1.07;68.32
13476;BME280;6810;63.824;20.288;2024-02-04T10:47:39;97678.94;;;1.16;67.79
13476;BME280;6810;63.824;20.288;2024-02-04T10:50:27;97674.75;;;1.14;68.19
13476;BME280;6810;63.824;20.288;2024-02-04T10:53:14;97698.44;;;1.25;68.34
13476;BME280;6810;63.824;20.288;2024-02-04T10:56:03;97696.47;;;1.28;68.66
13476;BME280;6810;63.824;20.288;2024-02-04T10:58:52;97685.88;;;1.30;68.70
13476;BME280;6810;63.824;20.288;2024-02-04T11:01:39;97702.00;;;1.36;68.79
13476;BME280;6810;63.824;20.288;2024-02-04T11:04:27;97698.34;;;1.39;68.34
13476;BME280;6810;63.824;20.288;2024-02-04T11:07:14;97705.03;;;1.43;67.86
13476;BME280;6810;63.824;20.288;2024-02-04T11:10:02;97703.16;;;1.45;68.21
13476;BME280;6810;63.824;20.288;2024-02-04T11:12:50;97709.97;;;1.47;68.84
13476;BME280;6810;63.824;20.288;2024-02-04T11:15:38;97716.75;;;1.50;67.85
13476;BME280;6810;63.824;20.288;2024-02-04T11:19:06;97714.88;;;1.52;68.97
13476;BME280;6810;63.824;20.288;2024-02-04T11:28:22;97708.88;;;1.50;68.47
13476;BME280;6810;63.824;20.288;2024-02-04T11:31:22;97724.63;;;1.62;68.80
13476;BME280;6810;63.824;20.288;2024-02-04T11:34:10;97724.63;;;1.62;68.72
13476;BME280;6810;63.824;20.288;2024-02-04T11:36:57;97736.59;;;1.66;68.67
13476;BME280;6810;63.824;20.288;2024-02-04T11:39:51;97732.81;;;1.70;68.66
13476;BME280;6810;63.824;20.288;2024-02-04T11:42:38;97729.22;;;1.71;68.69
13476;BME280;6810;63.824;20.288;2024-02-04T11:45:26;97738.47;;;1.77;67.97
13476;BME280;6810;63.824;20.288;2024-02-04T11:48:13;97740.88;;;1.80;68.89
13476;BME280;6810;63.824;20.288;2024-02-04T11:51:00;97754.38;;;1.87;69.01
13476;BME280;6810;63.824;20.288;2024-02-04T11:53:47;97766.34;;;1.91;68.41
13476;BME280;6810;63.824;20.288;2024-02-04T11:56:34;97765.94;;;1.97;69.16
13476;BME280;6810;63.824;20.288;2024-02-04T11:59:26;97764.75;;;2.01;68.79
13476;BME280;6810;63.824;20.288;2024-02-04T12:02:17;97773.16;;;2.06;69.04
13476;BME280;6810;63.824;20.288;2024-02-04T12:05:04;97772.06;;;2.08;68.75
13476;BME280;6810;63.824;20.288;2024-02-04T12:07:51;97780.47;;;2.13;68.50
13476;BME280;6810;63.824;20.288;2024-02-04T12:10:39;97782.66;;;2.19;69.04
13476;BME280;6810;63.824;20.288;2024-02-04T12:13:28;97787.69;;;2.22;68.09
13476;BME280;6810;63.824;20.288;2024-02-04T12:16:15;97782.09;;;2.27;68.23
13476;BME280;6810;63.824;20.288;2024-02-04T12:19:02;97783.19;;;2.24;67.71
13476;BME280;6810;63.824;20.288;2024-02-04T12:21:52;97796.59;;;2.32;67.93
13476;BME280;6810;63.824;20.288;2024-02-04T12:24:21;97797.31;;;2.34;68.40
13476;BME280;6810;63.824;20.288;2024-02-04T12:27:09;97800.69;;;2.36;67.35
13476;BME280;6810;63.824;20.288;2024-02-04T12:29:56;97812.63;;;2.40;67.42
13476;BME280;6810;63.824;20.288;2024-02-04T12:32:42;97817.66;;;2.43;68.42
13476;BME280;6810;63.824;20.288;2024-02-04T12:35:30;97822.00;;;2.44;67.77
13476;BME280;6810;63.824;20.288;2024-02-04T12:38:17;97827.16;;;2.46;68.22
13476;BME280;6810;63.824;20.288;2024-02-04T12:41:07;97813.25;;;2.44;67.42
13476;BME280;6810;63.824;20.288;2024-02-04T12:43:56;97825.84;;;2.51;67.44
13476;BME280;6810;63.824;20.288;2024-02-04T12:46:43;97820.38;;;2.54;68.35
13476;BME280;6810;63.824;20.288;2024-02-04T12:49:30;97826.38;;;2.56;67.38
13476;BME280;6810;63.824;20.288;2024-02-04T12:52:20;97826.25;;;2.58;67.90
13476;BME280;6810;63.824;20.288;2024-02-04T12:55:07;97789.09;;;2.39;68.46
13476;BME280;6810;63.824;20.288;2024-02-04T12:58:10;97807.56;;;2.50;67.54
13476;BME280;6810;63.824;20.288;2024-02-04T13:01:00;97835.47;;;2.63;67.84
13476;BME280;6810;63.824;20.288;2024-02-04T13:21:55;97858.88;;;3.02;66.08
13476;BME280;6810;63.824;20.288;2024-02-04T13:24:22;97852.97;;;2.99;65.59
13476;BME280;6810;63.824;20.288;2024-02-04T13:26:49;97858.34;;;2.97;65.85
13476;BME280;6810;63.824;20.288;2024-02-04T13:29:16;97865.50;;;2.95;65.79
13476;BME280;6810;63.824;20.288;2024-02-04T13:31:43;97865.63;;;2.94;65.40
13476;BME280;6810;63.824;20.288;2024-02-04T13:34:30;97862.28;;;2.92;66.74
13476;BME280;6810;63.824;20.288;2024-02-04T13:37:31;97864.28;;;2.88;65.83
13476;BME280;6810;63.824;20.288;2024-02-04T13:40:19;97868.81;;;2.86;65.22
13476;BME280;6810;63.824;20.288;2024-02-04T13:43:06;97877.78;;;2.84;66.09
13476;BME280;6810;63.824;20.288;2024-02-04T13:45:53;97869.16;;;2.82;66.53
13476;BME280;6810;63.824;20.288;2024-02-04T13:48:40;97884.19;;;2.80;66.17
13476;BME280;6810;63.824;20.288;2024-02-04T13:51:27;97885.25;;;2.77;65.88
13476;BME280;6810;63.824;20.288;2024-02-04T13:54:09;97898.63;;;2.74;65.91
13476;BME280;6810;63.824;20.288;2024-02-04T13:56:56;97910.13;;;2.73;66.33
13476;BME280;6810;63.824;20.288;2024-02-04T13:59:43;97906.75;;;2.71;65.89
13476;BME280;6810;63.824;20.288;2024-02-04T14:02:30;97902.56;;;2.69;66.78
13476;BME280;6810;63.824;20.288;2024-02-04T14:05:17;97915.91;;;2.66;65.35
13476;BME280;6810;63.824;20.288;2024-02-04T14:08:04;97921.28;;;2.64;65.32
13476;BME280;6810;63.824;20.288;2024-02-04T14:10:51;97913.63;;;2.61;66.62
13476;BME280;6810;63.824;20.288;2024-02-04T14:13:38;97920.78;;;2.59;65.87
13476;BME280;6810;63.824;20.288;2024-02-04T14:16:25;97923.50;;;2.58;66.61
13476;BME280;6810;63.824;20.288;2024-02-04T14:19:12;97919.81;;;2.48;65.94
13476;BME280;6810;63.824;20.288;2024-02-04T14:21:59;97930.00;;;2.52;66.24
13476;BME280;6810;63.824;20.288;2024-02-04T14:24:46;97930.44;;;2.46;65.71
13476;BME280;6810;63.824;20.288;2024-02-04T14:27:33;97939.28;;;2.45;66.65
13476;BME280;6810;63.824;20.288;2024-02-04T14:30:20;97944.53;;;2.45;66.33
13476;BME280;6810;63.824;20.288;2024-02-04T14:33:07;97954.31;;;2.43;66.17
13476;BME280;6810;63.824;20.288;2024-02-04T14:35:54;97958.88;;;2.41;66.06
13476;BME280;6810;63.824;20.288;2024-02-04T14:38:41;97962.53;;;2.39;65.62
13476;BME280;6810;63.824;20.288;2024-02-04T14:41:28;97964.44;;;2.37;65.69
13476;BME280;6810;63.824;20.288;2024-02-04T14:44:15;97972.53;;;2.34;66.92
13476;BME280;6810;63.824;20.288;2024-02-04T14:47:02;97974.41;;;2.32;66.07
13476;BME280;6810;63.824;20.288;2024-02-04T14:49:49;97980.84;;;2.28;66.53
13476;BME280;6810;63.824;20.288;2024-02-04T14:52:36;97991.34;;;2.28;65.78
13476;BME280;6810;63.824;20.288;2024-02-04T14:55:23;97983.69;;;2.25;65.67
13476;BME280;6810;63.824;20.288;2024-02-04T14:58:10;97986.38;;;2.23;66.67
13476;BME280;6810;63.824;20.288;2024-02-04T15:00:57;97987.53;;;2.19;65.80
13476;BME280;6810;63.824;20.288;2024-02-04T15:03:47;97994.47;;;2.20;65.65
13476;BME280;6810;63.824;20.288;2024-02-04T15:06:34;97997.50;;;2.14;66.69
13476;BME280;6810;63.824;20.288;2024-02-04T15:09:21;98001.00;;;2.15;65.71
13476;BME280;6810;63.824;20.288;2024-02-04T15:12:09;98004.47;;;2.15;65.60
13476;BME280;6810;63.824;20.288;2024-02-04T15:14:56;98008.03;;;2.14;65.80
13476;BME280;6810;63.824;20.288;2024-02-04T15:17:43;98002.06;;;2.12;66.31
13476;BME280;6810;63.824;20.288;2024-02-04T15:20:31;98002.16;;;2.11;66.54
13476;BME280;6810;63.824;20.288;2024-02-04T15:23:18;98008.44;;;2.08;65.72
13476;BME280;6810;63.824;20.288;2024-02-04T15:26:07;97999.84;;;2.06;65.68
13476;BME280;6810;63.824;20.288;2024-02-04T15:28:55;98007.94;;;2.03;66.75
13476;BME280;6810;63.824;20.288;2024-02-04T15:31:44;98004.03;;;1.96;65.75
13476;BME280;6810;63.824;20.288;2024-02-04T15:34:31;98006.53;;;1.98;66.55
13476;BME280;6810;63.824;20.288;2024-02-04T15:37:18;97972.50;;;1.71;66.57
13476;BME280;6810;63.824;20.288;2024-02-04T15:40:05;97965.03;;;1.65;65.75
13476;BME280;6810;63.824;20.288;2024-02-04T15:42:52;98016.72;;;1.90;65.74
13476;BME280;6810;63.824;20.288;2024-02-04T15:45:39;98009.34;;;1.82;66.25
13476;BME280;6810;63.824;20.288;2024-02-04T15:48:28;98021.53;;;1.83;66.42
13476;BME280;6810;63.824;20.288;2024-02-04T15:51:15;97988.22;;;1.58;65.76
13476;BME280;6810;63.824;20.288;2024-02-04T15:54:02;98019.34;;;1.77;66.18
13476;BME280;6810;63.824;20.288;2024-02-04T15:56:54;98023.94;;;1.73;66.14
13476;BME280;6810;63.824;20.288;2024-02-04T16:02:35;98029.50;;;1.69;66.45
13476;BME280;6810;63.824;20.288;2024-02-04T16:05:23;98029.69;;;1.66;65.75
13476;BME280;6810;63.824;20.288;2024-02-04T16:08:11;98026.41;;;1.62;66.70
13476;BME280;6810;63.824;20.288;2024-02-04T16:11:04;98037.97;;;1.60;66.42
13476;BME280;6810;63.824;20.288;2024-02-04T16:13:53;98045.09;;;1.58;66.47
13476;BME280;6810;63.824;20.288;2024-02-04T16:16:43;98039.28;;;1.53;65.84
13476;BME280;6810;63.824;20.288;2024-02-04T16:19:31;98029.84;;;1.50;66.28
13476;BME280;6810;63.824;20.288;2024-02-04T16:22:19;98012.47;;;1.35;65.90
13476;BME280;6810;63.824;20.288;2024-02-04T16:25:06;98034.53;;;1.45;65.96
13476;BME280;6810;63.824;20.288;2024-02-04T16:27:53;98025.41;;;1.38;66.33
13476;BME280;6810;63.824;20.288;2024-02-04T16:30:40;98021.75;;;1.27;66.84
13476;BME280;6810;63.824;20.288;2024-02-04T16:33:27;98050.16;;;1.34;66.08
13476;BME280;6810;63.824;20.288;2024-02-04T16:36:14;98056.41;;;1.32;66.13
13476;BME280;6810;63.824;20.288;2024-02-04T16:39:01;98055.69;;;1.30;66.52
13476;BME280;6810;63.824;20.288;2024-02-04T16:41:48;98045.38;;;1.27;66.36
13476;BME280;6810;63.824;20.288;2024-02-04T16:44:35;98053.34;;;1.25;65.86
13476;BME280;6810;63.824;20.288;2024-02-04T16:47:22;98060.56;;;1.22;66.47
13476;BME280;6810;63.824;20.288;2024-02-04T16:50:09;98039.91;;;1.03;66.58
13476;BME280;6810;63.824;20.288;2024-02-04T16:52:56;98058.34;;;1.16;66.30
13476;BME280;6810;63.824;20.288;2024-02-04T16:55:43;98014.19;;;0.82;66.13
13476;BME280;6810;63.824;20.288;2024-02-04T16:58:29;98062.19;;;1.10;66.31
13476;BME280;6810;63.824;20.288;2024-02-04T17:01:16;98068.47;;;1.08;65.64
13476;BME280;6810;63.824;20.288;2024-02-04T17:04:04;98074.00;;;1.03;66.42
13476;BME280;6810;63.824;20.288;2024-02-04T17:06:51;98033.59;;;0.79;66.23
13476;BME280;6810;63.824;20.288;2024-02-04T17:09:38;98081.19;;;1.00;66.53
13476;BME280;6810;63.824;20.288;2024-02-04T17:12:26;98084.00;;;0.97;66.38
13476;BME280;6810;63.824;20.288;2024-02-04T17:15:13;98090.22;;;0.96;66.24
13476;BME280;6810;63.824;20.288;2024-02-04T17:18:01;98066.91;;;0.77;65.93
13476;BME280;6810;63.824;20.288;2024-02-04T17:20:51;98101.06;;;0.90;66.49
13476;BME280;6810;63.824;20.288;2024-02-04T17:23:39;98098.66;;;0.87;66.44
13476;BME280;6810;63.824;20.288;2024-02-04T17:26:27;98100.50;;;0.85;66.14
13476;BME280;6810;63.824;20.288;2024-02-04T17:29:14;98099.84;;;0.81;66.21
13476;BME280;6810;63.824;20.288;2024-02-04T17:32:02;98099.13;;;0.79;66.25
13476;BME280;6810;63.824;20.288;2024-02-04T17:34:49;98098.34;;;0.77;66.32
13476;BME280;6810;63.824;20.288;2024-02-04T17:37:36;98101.06;;;0.76;65.79
13476;BME280;6810;63.824;20.288;2024-02-04T17:40:23;98102.09;;;0.73;66.04
13476;BME280;6810;63.824;20.288;2024-02-04T17:43:10;98095.44;;;0.68;66.12
13476;BME280;6810;63.824;20.288;2024-02-04T17:45:57;98116.31;;;0.69;66.36
13476;BME280;6810;63.824;20.288;2024-02-04T17:48:44;98117.34;;;0.67;66.21
13476;BME280;6810;63.824;20.288;2024-02-04T17:51:32;98097.78;;;0.58;66.55
13476;BME280;6810;63.824;20.288;2024-02-04T17:54:19;98116.69;;;0.63;65.91
13476;BME280;6810;63.824;20.288;2024-02-04T17:57:06;98124.72;;;0.60;66.19
13476;BME280;6810;63.824;20.288;2024-02-04T17:59:55;98123.97;;;0.58;66.12
13476;BME280;6810;63.824;20.288;2024-02-04T18:02:42;98140.63;;;0.57;66.28
13476;BME280;6810;63.824;20.288;2024-02-04T18:05:29;98133.06;;;0.53;66.31
13476;BME280;6810;63.824;20.288;2024-02-04T18:08:16;98130.44;;;0.53;66.18
13476;BME280;6810;63.824;20.288;2024-02-04T18:11:03;98129.66;;;0.51;66.16
13476;BME280;6810;63.824;20.288;2024-02-04T18:13:50;98131.47;;;0.50;66.20
13476;BME280;6810;63.824;20.288;2024-02-04T18:16:37;98129.84;;;0.48;66.64
13476;BME280;6810;63.824;20.288;2024-02-04T18:19:24;98136.13;;;0.45;66.02
13476;BME280;6810;63.824;20.288;2024-02-04T18:22:11;98135.28;;;0.45;66.02
13476;BME280;6810;63.824;20.288;2024-02-04T18:24:58;98144.06;;;0.44;66.17